Terminal Aerodrome Forecast
Issued by NWS

Current Version | Previous Version | Text Only | Print | Product List | Glossary On
Versions: 1 2 3 4 5 6 7 8 9 10 11 12 13 14 15 16 17 18 19 20 21 22 23 24 25 26 27 28
000
FTUS45 KGJT 020206 AAA
TAFCNY
TAF AMD
KCNY 020206Z 0202/0224 12008KT P6SM VCTS SCT090CB BKN200
      TEMPO 0202/0204 VRB15G25KT -TSRA BKN090CB
     FM020400 20005KT P6SM FEW110 SCT200
     FM020700 13003KT P6SM FEW200
     FM021800 22012G20KT P6SM SCT150=

USA.gov is the U.S. government's official web portal to all federal, state and local government web resources and services.